Time;durP1;ratioP1;P1;durP2;ratioP2;P2;SDS_P1;SDS_P2;PMS_P1;PMS_P2;Temp;Humidity;BMP_temperature;BMP_pressure;BME280_temperature;BME280_humidity;BME280_pressure;Samples;Min_cycle;Max_cycle;Signal;HPM_P1;HPM_P2
2021/05/24 01:56:52;;;;;;;4.43;3.53;;;24.90;50.00;;;;;;4918147;29;20058;-60
2021/05/24 01:59:18;;;;;;;4.65;4.07;;;24.90;50.00;;;;;;4918270;29;20036;-60
2021/05/24 02:01:44;;;;;;;7.20;3.47;;;24.90;50.00;;;;;;4918036;29;20036;-61
2021/05/24 02:04:10;;;;;;;5.07;3.92;;;24.80;49.90;;;;;;4917610;29;20044;-61
2021/05/24 02:06:36;;;;;;;8.60;3.92;;;24.80;49.90;;;;;;4916413;29;20040;-60
2021/05/24 02:09:04;;;;;;;4.47;3.67;;;24.80;49.90;;;;;;4916876;29;20479;-61
2021/05/24 02:11:30;;;;;;;6.75;3.45;;;24.80;49.70;;;;;;4916319;29;20036;-60
2021/05/24 02:13:56;;;;;;;4.22;3.80;;;24.80;49.70;;;;;;4917587;29;20063;-60
2021/05/24 02:16:49;;;;;;;5.80;3.75;;;24.80;49.60;;;;;;4917738;29;20044;-60
2021/05/24 02:19:18;;;;;;;4.07;3.25;;;24.80;49.30;;;;;;4916417;29;20044;-60
2021/05/24 02:21:44;;;;;;;4.93;2.95;;;24.80;49.30;;;;;;4916191;29;20028;-61
2021/05/24 02:24:11;;;;;;;4.00;3.15;;;24.80;49.30;;;;;;4916258;29;20052;-61
2021/05/24 02:26:41;;;;;;;5.00;3.25;;;24.80;49.20;;;;;;4917578;29;20052;-62
2021/05/24 02:29:08;;;;;;;4.43;2.83;;;24.80;49.10;;;;;;4917501;29;20040;-61
2021/05/24 02:31:37;;;;;;;6.28;3.83;;;24.80;49.00;;;;;;4917494;29;20046;-61
2021/05/24 02:34:04;;;;;;;3.23;2.80;;;24.80;48.90;;;;;;4916608;29;20419;-61
2021/05/24 02:36:31;;;;;;;5.50;2.95;;;24.80;49.30;;;;;;4926784;29;20042;-61
2021/05/24 02:38:57;;;;;;;4.80;3.05;;;24.80;48.80;;;;;;4936366;29;20036;-61
2021/05/24 02:41:24;;;;;;;5.88;3.45;;;24.80;48.80;;;;;;4935038;29;20051;-61
2021/05/24 02:43:50;;;;;;;3.75;2.85;;;24.80;48.70;;;;;;4936170;29;20403;-61
2021/05/24 02:46:16;;;;;;;2.72;2.53;;;24.80;48.50;;;;;;4935425;29;20415;-60
2021/05/24 02:48:42;;;;;;;4.47;3.28;;;24.80;48.50;;;;;;4936593;29;20078;-61
2021/05/24 02:51:08;;;;;;;4.18;2.25;;;24.80;48.40;;;;;;4936068;29;20071;-61
2021/05/24 02:53:34;;;;;;;4.45;2.35;;;24.80;48.40;;;;;;4935799;29;20098;-61
2021/05/24 02:56:00;;;;;;;3.22;2.08;;;24.80;48.30;;;;;;4935935;29;20652;-62
2021/05/24 02:58:26;;;;;;;3.22;2.22;;;24.80;48.30;;;;;;4936052;29;20136;-61
2021/05/24 03:00:52;;;;;;;3.22;2.20;;;24.80;48.20;;;;;;4936168;29;20106;-61
2021/05/24 03:03:21;;;;;;;4.28;3.15;;;24.80;48.20;;;;;;4936058;29;20059;-61
2021/05/24 03:06:37;;;;;;;2.88;2.40;;;24.70;48.00;;;;;;4934490;29;20040;-61
2021/05/24 03:09:47;;;;;;;4.50;2.05;;;24.70;48.00;;;;;;4934336;29;20044;-61
2021/05/24 03:12:58;;;;;;;5.50;2.38;;;24.80;47.70;;;;;;4935556;29;20044;-60
2021/05/24 03:16:14;;;;;;;3.38;2.30;;;24.70;47.60;;;;;;4934171;29;20075;-61
2021/05/24 03:19:31;;;;;;;3.53;1.95;;;24.70;47.70;;;;;;4934392;29;20039;-61
2021/05/24 03:22:48;;;;;;;3.17;1.60;;;24.70;47.60;;;;;;4935811;29;20355;-61
2021/05/24 03:26:05;;;;;;;3.67;2.05;;;24.70;47.60;;;;;;4934377;29;20068;-61
2021/05/24 03:29:22;;;;;;;3.72;1.70;;;24.70;47.40;;;;;;4935452;29;20126;-61
2021/05/24 03:32:39;;;;;;;1.60;1.42;;;24.70;47.30;;;;;;4934205;29;20046;-61
2021/05/24 03:35:56;;;;;;;2.15;1.67;;;24.70;47.30;;;;;;4935765;29;20442;-61
2021/05/24 03:39:13;;;;;;;1.90;1.50;;;24.70;47.10;;;;;;4935295;29;20032;-61
2021/05/24 03:42:23;;;;;;;3.25;1.70;;;24.70;47.00;;;;;;4935324;29;20043;-61
2021/05/24 03:45:41;;;;;;;2.50;1.50;;;24.70;46.90;;;;;;4934061;29;20040;-61
2021/05/24 03:49:00;;;;;;;2.67;1.40;;;24.70;46.90;;;;;;4935246;29;20043;-61
2021/05/24 03:52:13;;;;;;;2.40;1.55;;;24.70;46.80;;;;;;4935106;29;20039;-61
2021/05/24 03:55:30;;;;;;;2.80;1.45;;;24.70;46.60;;;;;;4935163;29;20047;-61
2021/05/24 03:58:47;;;;;;;3.70;1.60;;;24.70;46.60;;;;;;4934033;29;20047;-61
2021/05/24 04:02:04;;;;;;;3.38;1.65;;;24.70;46.40;;;;;;4934470;29;20039;-61
2021/05/24 04:08:42;;;;;;;6.35;1.58;;;24.60;45.60;;;;;;4934827;29;20501;-61
2021/05/24 04:11:59;;;;;;;3.15;1.40;;;24.60;45.40;;;;;;4933438;29;20043;-61
2021/05/24 04:15:10;;;;;;;2.55;0.98;;;24.60;45.40;;;;;;4934747;29;20032;-61
2021/05/24 04:18:30;;;;;;;1.48;0.88;;;24.60;45.40;;;;;;4934566;29;20036;-60
2021/05/24 04:21:47;;;;;;;2.78;1.30;;;24.60;45.40;;;;;;4933188;29;20043;-61
2021/05/24 04:25:04;;;;;;;1.83;1.02;;;24.60;45.20;;;;;;4934528;29;20118;-61
2021/05/24 04:28:21;;;;;;;4.28;1.10;;;24.60;45.20;;;;;;4934431;29;20070;-61
2021/05/24 04:31:38;;;;;;;2.75;1.40;;;24.50;44.90;;;;;;4934461;29;20043;-61
2021/05/24 04:34:55;;;;;;;3.30;1.17;;;24.50;45.00;;;;;;4933131;29;20533;-61
2021/05/24 04:38:12;;;;;;;3.22;1.10;;;24.50;44.80;;;;;;4934636;29;20677;-61
2021/05/24 04:41:29;;;;;;;2.05;0.95;;;24.50;44.80;;;;;;4934212;29;20074;-61
2021/05/24 04:44:45;;;;;;;1.33;1.23;;;24.50;44.70;;;;;;4933230;29;20426;-61
2021/05/24 04:48:02;;;;;;;2.05;1.15;;;24.50;44.50;;;;;;4932797;29;20035;-60
2021/05/24 04:51:19;;;;;;;3.28;1.23;;;24.50;44.40;;;;;;4932944;29;20048;-60
2021/05/24 04:54:33;;;;;;;3.38;1.50;;;24.50;44.30;;;;;;4917542;29;20046;-60
2021/05/24 04:57:49;;;;;;;1.73;0.90;;;24.50;43.80;;;;;;4934668;29;20074;-60
2021/05/24 05:01:06;;;;;;;3.25;1.15;;;24.50;43.90;;;;;;4934268;29;20054;-60
2021/05/24 05:04:23;;;;;;;3.45;1.13;;;24.50;43.60;;;;;;4934155;29;20119;-60
2021/05/24 05:07:40;;;;;;;2.28;1.10;;;24.50;43.50;;;;;;4933151;29;20542;-59
2021/05/24 05:10:57;;;;;;;2.33;1.13;;;24.50;43.50;;;;;;4932670;29;20486;-60
2021/05/24 05:14:11;;;;;;;1.67;1.00;;;24.50;43.40;;;;;;4934192;29;20434;-60
2021/05/24 05:17:28;;;;;;;2.15;0.95;;;24.50;43.50;;;;;;4932508;29;20046;-60
2021/05/24 05:20:45;;;;;;;2.15;1.10;;;24.50;43.20;;;;;;4932829;29;20047;-59
2021/05/24 05:24:02;;;;;;;2.55;1.02;;;24.50;43.40;;;;;;4933690;29;20050;-60
2021/05/24 05:27:19;;;;;;;3.85;1.95;;;24.50;43.40;;;;;;4932776;29;20102;-59
2021/05/24 05:30:36;;;;;;;7.85;5.53;;;24.50;43.10;;;;;;4917804;29;20050;-64
2021/05/24 05:33:53;;;;;;;13.82;10.10;;;24.40;43.20;;;;;;4932675;29;20107;-61
2021/05/24 05:37:11;;;;;;;19.17;15.27;;;24.50;43.20;;;;;;4921713;29;20119;-59
2021/05/24 05:40:28;;;;;;;27.63;22.00;;;24.50;43.10;;;;;;4932078;29;20137;-59
2021/05/24 05:43:45;;;;;;;22.52;19.65;;;24.40;42.10;;;;;;4931875;29;20036;-59
2021/05/24 05:47:01;;;;;;;19.70;16.75;;;24.40;41.90;;;;;;4922121;29;20032;-60
2021/05/24 05:50:18;;;;;;;16.88;14.50;;;24.40;41.70;;;;;;4933119;29;20953;-60
2021/05/24 05:53:35;;;;;;;12.82;10.65;;;24.30;41.50;;;;;;4933367;29;20126;-59
2021/05/24 05:56:52;;;;;;;12.02;7.93;;;24.30;41.10;;;;;;4931891;29;20455;-60
2021/05/24 06:00:09;;;;;;;10.73;8.75;;;24.30;40.60;;;;;;4921619;29;20054;-63
2021/05/24 06:03:26;;;;;;;18.52;9.10;;;24.30;40.30;;;;;;4934095;29;20402;-64
2021/05/24 06:06:43;;;;;;;15.35;10.73;;;24.30;40.30;;;;;;4932937;28;21606;-67
2021/05/24 06:10:00;;;;;;;14.45;11.10;;;24.20;40.10;;;;;;4934824;29;20035;-67
2021/05/24 06:13:13;;;;;;;11.27;8.13;;;24.20;40.10;;;;;;4942319;29;20489;-63
2021/05/24 06:16:30;;;;;;;11.50;8.85;;;24.20;39.90;;;;;;4948900;29;20074;-63
2021/05/24 06:19:46;;;;;;;10.50;7.10;;;24.20;40.10;;;;;;4934361;29;20131;-63
2021/05/24 06:22:58;;;;;;;7.68;5.90;;;24.20;39.80;;;;;;4933665;28;20042;-70
2021/05/24 06:26:15;;;;;;;6.13;3.83;;;24.20;39.70;;;;;;4929182;29;20521;-63
2021/05/24 06:29:32;;;;;;;4.72;3.50;;;24.20;40.00;;;;;;4917417;29;20044;-63
2021/05/24 06:32:47;;;;;;;5.20;3.55;;;24.20;39.90;;;;;;4917488;29;20050;-62
2021/05/24 06:36:04;;;;;;;8.23;5.05;;;24.20;39.80;;;;;;4917757;29;20064;-68
2021/05/24 06:39:21;;;;;;;10.95;5.68;;;24.20;39.70;;;;;;4917738;29;20047;-65
2021/05/24 06:42:37;;;;;;;13.55;6.28;;;24.20;40.00;;;;;;4923003;29;20482;-68
2021/05/24 06:45:51;;;;;;;8.63;5.88;;;24.20;40.00;;;;;;4938171;29;20048;-65
2021/05/24 06:49:08;;;;;;;9.23;5.95;;;24.20;40.10;;;;;;4934285;29;20051;-64
2021/05/24 06:52:24;;;;;;;7.70;5.40;;;24.20;40.10;;;;;;4934665;29;20043;-65
2021/05/24 06:55:41;;;;;;;7.82;5.57;;;24.20;40.10;;;;;;4936313;29;20047;-65
2021/05/24 06:58:58;;;;;;;8.13;4.93;;;24.30;40.20;;;;;;4935667;29;20046;-67
2021/05/24 07:02:39;;;;;;;8.57;5.18;;;24.30;40.00;;;;;;4924958;29;20157;-64
2021/05/24 07:05:56;;;;;;;9.35;5.25;;;24.30;40.00;;;;;;4937092;29;20135;-62
2021/05/24 07:09:07;;;;;;;8.65;4.93;;;24.40;40.30;;;;;;4937387;29;20447;-69
2021/05/24 07:12:20;;;;;;;7.05;4.47;;;24.40;40.30;;;;;;4936699;29;20382;-69
2021/05/24 07:15:36;;;;;;;12.50;4.00;;;24.50;40.40;;;;;;4936452;29;20042;-68
2021/05/24 07:18:51;;;;;;;5.28;3.25;;;24.50;40.30;;;;;;4935877;29;20035;-68
2021/05/24 07:22:05;;;;;;;5.40;3.53;;;24.50;40.30;;;;;;4936741;29;20039;-66
2021/05/24 07:25:21;;;;;;;6.40;3.10;;;24.50;40.30;;;;;;4937051;29;20119;-67
2021/05/24 07:28:38;;;;;;;6.57;2.13;;;24.60;40.20;;;;;;4935422;29;20044;-67
2021/05/24 07:31:50;;;;;;;8.52;2.50;;;24.60;39.90;;;;;;4935388;29;20040;-67
2021/05/24 07:35:07;;;;;;;3.85;2.30;;;24.60;39.60;;;;;;4936323;29;20039;-67
2021/05/24 07:38:24;;;;;;;6.63;2.20;;;24.70;39.70;;;;;;4936710;29;20062;-66
2021/05/24 07:41:41;;;;;;;5.60;2.63;;;24.70;39.50;;;;;;4936583;29;20521;-67
2021/05/24 07:44:58;;;;;;;3.10;2.33;;;24.70;39.40;;;;;;4936704;29;20036;-67
2021/05/24 07:48:15;;;;;;;4.80;1.92;;;24.70;39.20;;;;;;4934983;29;20130;-68
2021/05/24 07:51:26;;;;;;;4.18;2.65;;;24.70;38.90;;;;;;4949480;29;20094;-69
2021/05/24 07:54:44;;;;;;;4.72;2.67;;;24.80;38.90;;;;;;4937467;29;20082;-67
2021/05/24 07:58:00;;;;;;;38.85;34.65;;;24.80;38.30;;;;;;4955505;28;20931;-67
2021/05/24 08:01:17;;;;;;;23.42;20.92;;;24.80;38.20;;;;;;4916369;29;20088;-67
2021/05/24 08:04:34;;;;;;;21.20;16.15;;;24.90;38.00;;;;;;4937480;28;20066;-67
2021/05/24 08:07:51;;;;;;;19.92;11.05;;;24.90;38.00;;;;;;4935187;29;20042;-68
2021/05/24 08:11:11;;;;;;;9.35;7.40;;;24.90;38.00;;;;;;4933801;29;20070;-69
2021/05/24 08:14:28;;;;;;;9.75;5.97;;;24.90;37.80;;;;;;4935812;29;20028;-67
2021/05/24 08:17:45;;;;;;;7.97;4.03;;;25.00;37.50;;;;;;4919432;29;20457;-68
2021/05/24 08:21:04;;;;;;;5.53;3.58;;;25.00;37.30;;;;;;4935391;29;20040;-67
2021/05/24 08:24:21;;;;;;;4.78;3.00;;;25.00;37.20;;;;;;4941150;29;20036;-69
2021/05/24 08:27:38;;;;;;;8.15;3.03;;;25.10;37.20;;;;;;4941759;29;20085;-69
2021/05/24 08:30:55;;;;;;;4.82;1.88;;;25.10;37.10;;;;;;4933237;29;20054;-69
2021/05/24 08:34:12;;;;;;;9.55;2.40;;;25.10;37.20;;;;;;4936797;29;20043;-69
2021/05/24 08:37:23;;;;;;;5.90;1.92;;;25.20;37.10;;;;;;4935853;29;20039;-70
2021/05/24 08:40:14;;;;;;;;;;;25.20;36.80;;;;;;4934947;29;20055;-59
2021/05/24 08:43:24;;;;;;;7.28;1.83;;;25.30;37.80;;;;;;4953538;29;20296;-60
2021/05/24 08:46:41;;;;;;;7.85;1.50;;;25.30;36.80;;;;;;4953758;29;20043;-60
2021/05/24 08:49:58;;;;;;;7.80;1.65;;;25.40;37.00;;;;;;4953481;28;20032;-60
2021/05/24 08:53:11;;;;;;;7.47;1.80;;;25.50;37.20;;;;;;4950254;29;20628;-59
2021/05/24 08:56:28;;;;;;;4.43;1.33;;;25.50;37.00;;;;;;4954296;29;20071;-61
2021/05/24 08:59:45;;;;;;;5.93;1.42;;;25.60;36.80;;;;;;4951662;29;20174;-54
2021/05/24 09:03:01;;;;;;;3.47;1.60;;;25.70;36.80;;;;;;4952815;29;20043;-56
2021/05/24 09:06:18;;;;;;;3.05;1.17;;;25.70;36.50;;;;;;4940730;29;20127;-57
2021/05/24 09:09:36;;;;;;;4.43;1.52;;;25.80;36.40;;;;;;4934011;29;20154;-56
2021/05/24 09:12:45;;;;;;;5.53;1.25;;;25.80;36.40;;;;;;4932291;29;20135;-58
2021/05/24 09:16:02;;;;;;;3.17;1.10;;;25.90;36.30;;;;;;4932620;29;20036;-58
2021/05/24 09:19:19;;;;;;;7.60;2.80;;;26.00;36.30;;;;;;4945487;29;20473;-57
2021/05/24 09:22:32;;;;;;;8.70;2.60;;;26.00;36.30;;;;;;4952679;29;20049;-55
2021/05/24 09:25:49;;;;;;;4.70;2.83;;;26.10;36.30;;;;;;4952725;29;20047;-56
2021/05/24 09:29:06;;;;;;;6.80;6.05;;;26.20;36.10;;;;;;4952751;29;20069;-55
2021/05/24 09:32:18;;;;;;;7.03;5.10;;;26.30;36.20;;;;;;4952084;29;20545;-55
2021/05/24 09:35:35;;;;;;;6.13;3.45;;;26.30;36.10;;;;;;4952439;29;20039;-55
2021/05/24 09:38:52;;;;;;;3.67;2.45;;;26.40;36.00;;;;;;4952605;29;20074;-56
2021/05/24 09:42:09;;;;;;;3.47;1.52;;;26.40;35.70;;;;;;4952689;29;20047;-56
2021/05/24 09:45:26;;;;;;;6.22;1.50;;;26.50;35.50;;;;;;4952234;28;20039;-56
2021/05/24 09:48:43;;;;;;;3.45;1.40;;;26.60;35.40;;;;;;4952494;29;20047;-55
2021/05/24 09:52:00;;;;;;;3.08;1.40;;;26.60;35.40;;;;;;4952411;29;20051;-56
2021/05/24 09:55:17;;;;;;;9.27;8.02;;;26.70;35.20;;;;;;4953105;29;20047;-56
2021/05/24 09:58:34;;;;;;;22.63;19.92;;;26.80;35.40;;;;;;4955202;29;20473;-55
2021/05/24 10:01:53;;;;;;;21.98;19.52;;;26.80;35.20;;;;;;4956145;29;20047;-54
2021/05/24 10:05:09;;;;;;;19.73;17.73;;;26.90;35.10;;;;;;4955846;29;20090;-56
2021/05/24 10:08:26;;;;;;;15.77;14.27;;;27.00;35.20;;;;;;4954642;29;20054;-57
2021/05/24 10:11:44;;;;;;;10.63;9.52;;;27.00;35.00;;;;;;4956434;29;20126;-56
2021/05/24 10:15:01;;;;;;;7.72;6.35;;;27.10;34.70;;;;;;4955889;29;20569;-56
2021/05/24 10:18:17;;;;;;;6.82;4.45;;;27.10;34.50;;;;;;4955739;29;20521;-56
2021/05/24 10:21:34;;;;;;;3.75;2.28;;;27.20;34.20;;;;;;4954663;29;20055;-56
2021/05/24 10:24:51;;;;;;;3.35;1.50;;;27.30;33.90;;;;;;4955814;29;20086;-56
2021/05/24 10:28:08;;;;;;;2.83;1.00;;;27.30;33.60;;;;;;4954027;29;20405;-56
2021/05/24 10:31:20;;;;;;;3.20;1.05;;;27.40;33.30;;;;;;4955046;29;20051;-57
2021/05/24 10:34:37;;;;;;;3.90;0.75;;;27.40;33.00;;;;;;4955473;29;20389;-56
2021/05/24 10:37:54;;;;;;;4.13;0.95;;;27.50;33.00;;;;;;4955385;29;20039;-57
2021/05/24 10:41:11;;;;;;;4.75;1.00;;;27.60;33.00;;;;;;4955636;29;20091;-55
2021/05/24 10:44:28;;;;;;;2.00;0.82;;;27.60;32.70;;;;;;4954559;29;20035;-57
2021/05/24 10:47:45;;;;;;;6.50;0.90;;;27.60;32.40;;;;;;4954651;29;20454;-57
2021/05/24 10:51:02;;;;;;;3.03;0.70;;;27.70;32.50;;;;;;4955511;29;20039;-57
2021/05/24 10:54:19;;;;;;;1.98;0.85;;;27.80;32.30;;;;;;4955371;29;20054;-56
2021/05/24 10:57:36;;;;;;;1.80;1.05;;;27.80;31.90;;;;;;4955252;29;20047;-55
2021/05/24 11:00:54;;;;;;;2.13;0.80;;;27.90;31.80;;;;;;4954997;29;20043;-56
2021/05/24 11:04:04;;;;;;;3.35;1.00;;;27.90;31.60;;;;;;4954894;29;20047;-56
2021/05/24 11:07:16;;;;;;;4.10;1.53;;;28.00;31.60;;;;;;4954846;28;20371;-56
2021/05/24 11:10:32;;;;;;;2.55;0.68;;;28.00;31.40;;;;;;4955401;29;20619;-57
2021/05/24 11:13:42;;;;;;;2.15;0.82;;;28.10;31.10;;;;;;4955510;29;20047;-56
2021/05/24 11:16:59;;;;;;;3.58;0.63;;;28.20;30.40;;;;;;4955273;29;20122;-56
2021/05/24 11:20:16;;;;;;;8.07;1.65;;;28.20;30.40;;;;;;4954966;29;20117;-57
2021/05/24 11:26:52;;;;;;;3.42;0.90;;;28.40;33.20;;;;;;4953470;29;20551;-56
2021/05/24 11:30:05;;;;;;;4.40;2.00;;;28.40;33.60;;;;;;4954855;29;20046;-57
2021/05/24 11:33:22;;;;;;;3.88;1.02;;;28.50;33.50;;;;;;4954627;29;20142;-57
2021/05/24 11:36:39;;;;;;;2.20;1.13;;;28.50;32.20;;;;;;4953402;29;20423;-57
2021/05/24 11:39:56;;;;;;;2.88;1.00;;;28.60;31.30;;;;;;4953451;29;20032;-57
2021/05/24 11:43:15;;;;;;;4.15;1.15;;;28.60;31.90;;;;;;4954559;28;20504;-57
2021/05/24 11:46:32;;;;;;;4.63;1.80;;;28.60;32.40;;;;;;4953358;29;20067;-56
2021/05/24 11:49:50;;;;;;;1.98;1.00;;;28.60;31.90;;;;;;4954461;29;20481;-56
2021/05/24 11:53:05;;;;;;;8.95;1.70;;;28.60;32.30;;;;;;4954201;29;20367;-56
2021/05/24 11:56:18;;;;;;;6.72;1.30;;;28.70;32.70;;;;;;4952849;29;20047;-57
2021/05/24 11:59:35;;;;;;;9.35;1.65;;;28.70;32.80;;;;;;4954359;29;20119;-57
2021/05/24 12:02:52;;;;;;;40.30;4.90;;;28.70;33.00;;;;;;4954446;29;20444;-58
2021/05/24 12:06:07;;;;;;;7.50;1.55;;;28.70;33.10;;;;;;4954413;29;20055;-58
2021/05/24 12:09:24;;;;;;;5.10;1.75;;;28.70;33.00;;;;;;4954353;29;20059;-58
2021/05/24 12:12:38;;;;;;;7.28;1.30;;;28.70;32.90;;;;;;4954132;29;20070;-58
